Aviation Digital Data Service (ADDS)

Output produced by METARs form (1211 UTC 19 January 2019)
found at http://www.aviationweather.gov/metar/data/
 
Forecast for: LIML (MILANO/LINATE , IT)
Text: TAF LIML 191100Z 1912/2012 VRB05KT 9999 SCT025 BKN060
Forecast period: 1200 UTC 19 January 2019 to 1200 UTC 20 January 2019
Forecast type: FROM: standard forecast or significant change
Winds: variable direction winds at 6 MPH (5 knots; 2.6 m/s)
Visibility: 6 or more miles 10+ km)
Ceiling: 6000 feet AGL
Clouds: scattered clouds at 2500 feet AGL
broken clouds at 6000 feet AGL
Weather: no significant weather forecast for this period